createdAt,value
2022-10-30T00:00:35.870Z,62.70
2022-10-30T00:03:03.317Z,62.70
2022-10-30T00:05:30.576Z,62.80
2022-10-30T00:07:58.196Z,62.80
2022-10-30T00:10:25.390Z,62.80
2022-10-30T00:12:52.260Z,62.80
2022-10-30T00:15:19.228Z,62.60
2022-10-30T00:17:46.325Z,62.40
2022-10-30T00:20:13.207Z,62.30
2022-10-30T00:22:40.070Z,62.10
2022-10-30T00:25:07.174Z,62.20
2022-10-30T00:27:34.014Z,62.10
2022-10-30T00:30:00.944Z,62.40
2022-10-30T00:32:28.369Z,62.40
2022-10-30T00:34:55.224Z,62.40
2022-10-30T00:37:22.159Z,62.50
2022-10-30T00:39:49.115Z,62.40
2022-10-30T00:42:17.211Z,62.40
2022-10-30T00:44:51.195Z,62.40
2022-10-30T00:47:25.738Z,62.50
2022-10-30T00:49:58.671Z,62.80
2022-10-30T00:52:26.809Z,62.80
2022-10-30T00:54:54.088Z,62.90
2022-10-30T00:57:20.906Z,62.80
2022-10-30T00:59:47.991Z,62.80
2022-10-30T01:02:15.013Z,63.20
2022-10-30T01:04:42.004Z,63.50
2022-10-30T01:07:12.958Z,63.30
2022-10-30T01:09:39.782Z,63.50
2022-10-30T01:12:06.875Z,63.70
2022-10-30T01:14:37.133Z,63.70
2022-10-30T01:17:16.014Z,63.80
2022-10-30T01:19:45.087Z,63.80
2022-10-30T01:22:44.662Z,63.60
2022-10-30T01:25:20.643Z,63.70
2022-10-30T01:27:53.355Z,63.60
2022-10-30T01:30:26.188Z,63.70
2022-10-30T01:32:56.406Z,63.80
2022-10-30T01:35:32.503Z,64.20
2022-10-30T01:38:08.813Z,64.40
2022-10-30T01:40:35.838Z,64.30
2022-10-30T01:43:03.062Z,64.20
2022-10-30T01:45:48.432Z,64.20
2022-10-30T01:48:20.393Z,64.30
2022-10-30T01:50:54.646Z,64.40
2022-10-30T01:53:27.350Z,64.30
2022-10-30T01:55:58.427Z,64.10
2022-10-30T01:58:32.343Z,63.90
2022-10-30T02:01:02.087Z,64.00
2022-10-30T02:03:30.782Z,64.40
2022-10-30T02:06:00.648Z,64.40
2022-10-30T02:08:27.518Z,64.80
2022-10-30T02:10:54.591Z,65.00
2022-10-30T02:13:21.686Z,65.20
2022-10-30T02:15:48.655Z,65.10
2022-10-30T02:18:15.930Z,65.30
2022-10-30T02:20:42.834Z,65.40
2022-10-30T02:23:13.644Z,65.50
2022-10-30T02:25:41.987Z,65.50
2022-10-30T02:28:09.004Z,65.50
2022-10-30T02:30:36.187Z,65.60
2022-10-30T02:33:03.289Z,65.60
2022-10-30T02:35:30.341Z,65.80
2022-10-30T02:37:57.352Z,66.20
2022-10-30T02:40:24.443Z,65.90
2022-10-30T02:42:51.955Z,65.60
2022-10-30T02:45:19.252Z,65.40
2022-10-30T02:47:46.262Z,65.50
2022-10-30T02:50:13.460Z,65.70
2022-10-30T02:52:40.497Z,66.40
2022-10-30T02:55:07.569Z,66.60
2022-10-30T02:57:34.424Z,66.70
2022-10-30T03:00:01.880Z,66.70
2022-10-30T03:02:28.891Z,67.10
2022-10-30T03:04:56.051Z,66.40
2022-10-30T03:07:23.294Z,66.00
2022-10-30T03:09:50.380Z,65.80
2022-10-30T03:12:17.371Z,65.70
2022-10-30T03:14:44.744Z,65.60
2022-10-30T03:17:11.891Z,65.50
2022-10-30T03:19:39.039Z,65.30
2022-10-30T03:22:05.985Z,65.30
2022-10-30T03:24:33.039Z,65.20
2022-10-30T03:27:00.103Z,64.80
2022-10-30T03:29:27.155Z,64.70
2022-10-30T03:31:54.089Z,64.60
2022-10-30T03:34:20.969Z,64.60
2022-10-30T03:36:47.956Z,64.50
2022-10-30T03:39:14.818Z,64.70
2022-10-30T03:41:43.630Z,64.80
2022-10-30T03:44:10.760Z,64.90
2022-10-30T03:46:38.302Z,64.90
2022-10-30T03:49:05.341Z,64.90
2022-10-30T03:51:32.393Z,64.70
2022-10-30T03:53:59.665Z,64.70
2022-10-30T03:56:26.701Z,65.10
2022-10-30T03:58:53.659Z,65.40
2022-10-30T04:01:20.769Z,65.50
2022-10-30T04:03:47.760Z,65.20
2022-10-30T04:06:14.895Z,65.40
2022-10-30T04:08:41.957Z,65.40
2022-10-30T04:11:10.301Z,65.20
2022-10-30T04:13:37.554Z,65.40
2022-10-30T04:16:04.818Z,65.40
2022-10-30T04:18:31.784Z,65.30
2022-10-30T04:21:01.876Z,65.70
2022-10-30T04:23:29.006Z,65.90
2022-10-30T04:25:55.910Z,65.90
2022-10-30T04:28:22.826Z,66.10
2022-10-30T04:30:49.978Z,66.00
2022-10-30T04:33:17.133Z,65.90
2022-10-30T04:35:44.001Z,65.70
2022-10-30T04:38:12.013Z,66.30
2022-10-30T04:40:39.707Z,66.50
2022-10-30T04:43:06.841Z,66.70
2022-10-30T04:45:34.226Z,66.50
2022-10-30T04:48:02.252Z,66.70
2022-10-30T04:50:29.303Z,66.70
2022-10-30T04:53:06.286Z,66.60
2022-10-30T04:55:33.535Z,66.80
2022-10-30T04:58:00.886Z,66.70
2022-10-30T05:00:28.353Z,66.80
2022-10-30T05:02:55.296Z,67.10
2022-10-30T05:05:22.250Z,67.20
2022-10-30T05:07:49.300Z,66.90
2022-10-30T05:10:17.262Z,66.60
2022-10-30T05:12:44.632Z,66.40
2022-10-30T05:15:12.021Z,66.30
2022-10-30T05:17:39.059Z,66.10
2022-10-30T05:20:06.108Z,65.90
2022-10-30T05:22:33.045Z,66.00
2022-10-30T05:24:59.948Z,66.10
2022-10-30T05:27:26.890Z,66.20
2022-10-30T05:29:53.758Z,66.10
2022-10-30T05:32:20.705Z,66.10
2022-10-30T05:34:47.657Z,65.80
2022-10-30T05:37:14.502Z,66.30
2022-10-30T05:39:41.517Z,65.70
2022-10-30T05:42:13.437Z,65.50
2022-10-30T05:44:59.945Z,65.30
2022-10-30T05:47:27.888Z,65.20
2022-10-30T05:49:54.980Z,65.00
2022-10-30T05:52:22.172Z,64.60
2022-10-30T05:54:49.174Z,64.40
2022-10-30T05:57:16.161Z,64.50
2022-10-30T05:59:43.157Z,64.80
2022-10-30T06:02:10.065Z,64.70
2022-10-30T06:04:36.985Z,64.60
2022-10-30T06:07:03.904Z,64.50
2022-10-30T06:09:30.861Z,64.60
2022-10-30T06:11:58.844Z,64.30
2022-10-30T06:14:25.877Z,64.30
2022-10-30T06:16:52.820Z,64.00
2022-10-30T06:19:19.865Z,63.80
2022-10-30T06:21:47.138Z,63.20
2022-10-30T06:24:14.324Z,61.70
2022-10-30T06:26:41.324Z,60.00
2022-10-30T06:29:08.297Z,58.60
2022-10-30T06:31:35.432Z,57.40
2022-10-30T06:34:03.329Z,55.80
2022-10-30T06:36:30.379Z,54.10
2022-10-30T06:39:03.262Z,52.80
2022-10-30T06:41:30.731Z,51.60
2022-10-30T06:43:57.954Z,50.20
2022-10-30T06:46:27.501Z,49.00
2022-10-30T06:48:59.611Z,48.50
2022-10-30T06:51:26.495Z,47.50
2022-10-30T06:53:53.400Z,46.50
2022-10-30T06:56:23.068Z,45.70
2022-10-30T06:58:50.160Z,44.50
2022-10-30T07:01:17.973Z,43.50
2022-10-30T07:03:44.963Z,42.70
2022-10-30T07:06:12.104Z,42.00
2022-10-30T07:08:46.215Z,41.50
2022-10-30T07:11:15.308Z,41.10
2022-10-30T07:13:42.260Z,40.50
2022-10-30T07:16:09.186Z,39.40
2022-10-30T07:18:36.372Z,38.90
2022-10-30T07:21:03.384Z,38.60
2022-10-30T07:23:30.466Z,38.90
2022-10-30T07:26:03.310Z,38.70
2022-10-30T07:28:31.824Z,38.20
2022-10-30T07:30:59.073Z,37.40
2022-10-30T07:33:26.292Z,36.80
2022-10-30T07:35:53.302Z,36.30
2022-10-30T07:38:20.353Z,35.90
2022-10-30T07:40:54.736Z,35.20
2022-10-30T07:43:23.293Z,34.70
2022-10-30T07:45:59.798Z,33.90
2022-10-30T07:48:27.003Z,33.40
2022-10-30T07:51:03.831Z,32.60
2022-10-30T07:53:31.078Z,32.10
2022-10-30T07:55:58.317Z,31.50
2022-10-30T07:58:25.288Z,31.70
2022-10-30T08:00:52.542Z,31.30
2022-10-30T08:03:40.955Z,31.50
2022-10-30T08:08:37.896Z,30.40
2022-10-30T08:11:11.929Z,30.50
2022-10-30T08:13:38.979Z,30.00
2022-10-30T08:16:06.149Z,29.70
2022-10-30T08:18:45.801Z,29.60
2022-10-30T08:21:12.921Z,29.40
2022-10-30T08:23:40.086Z,28.90
2022-10-30T08:26:07.839Z,28.60
2022-10-30T08:28:37.965Z,28.40
2022-10-30T08:31:14.541Z,28.80
2022-10-30T08:33:41.521Z,29.40
2022-10-30T08:36:09.113Z,29.40
2022-10-30T08:38:36.097Z,29.10
2022-10-30T08:41:03.214Z,28.50
2022-10-30T08:43:30.240Z,28.30
2022-10-30T08:46:00.614Z,28.20
2022-10-30T08:48:27.842Z,28.00
2022-10-30T08:50:58.071Z,27.70
2022-10-30T08:53:25.231Z,27.40
2022-10-30T08:55:52.379Z,27.10
2022-10-30T08:58:19.611Z,26.80
2022-10-30T09:00:46.680Z,26.50
2022-10-30T09:03:13.716Z,26.60
2022-10-30T09:05:46.413Z,26.60
2022-10-30T09:08:13.375Z,26.70
2022-10-30T09:10:40.187Z,26.30
2022-10-30T09:13:07.852Z,25.50
2022-10-30T09:15:34.877Z,25.00
2022-10-30T09:18:02.914Z,25.00
2022-10-30T09:20:30.289Z,25.20
2022-10-30T09:22:58.145Z,25.60
2022-10-30T09:25:25.648Z,26.10
2022-10-30T09:27:52.822Z,26.90
2022-10-30T09:30:20.044Z,27.90
2022-10-30T09:32:50.065Z,29.00
2022-10-30T09:35:20.893Z,29.70
2022-10-30T09:37:47.960Z,30.40
2022-10-30T09:40:20.211Z,30.30
2022-10-30T09:42:47.657Z,30.80
2022-10-30T09:45:28.619Z,30.80
2022-10-30T09:48:11.702Z,30.70
2022-10-30T09:51:01.978Z,29.80
2022-10-30T09:53:31.084Z,28.50
2022-10-30T09:56:02.122Z,27.40
2022-10-30T09:58:34.244Z,26.50
2022-10-30T10:01:17.948Z,25.60
2022-10-30T10:03:48.049Z,25.50
2022-10-30T10:06:18.775Z,24.70
2022-10-30T10:08:54.028Z,24.20
2022-10-30T10:11:22.271Z,24.90
2022-10-30T10:13:54.332Z,25.00
2022-10-30T10:16:21.889Z,24.70
2022-10-30T10:18:51.821Z,24.30
2022-10-30T10:21:21.411Z,24.00
2022-10-30T10:23:49.095Z,23.80
2022-10-30T10:26:29.293Z,23.60
2022-10-30T10:28:59.230Z,23.60
2022-10-30T10:31:44.886Z,23.30
2022-10-30T10:34:30.821Z,23.50
2022-10-30T10:36:57.726Z,23.40
2022-10-30T10:39:34.314Z,23.10
2022-10-30T10:42:13.782Z,22.90
2022-10-30T10:44:57.269Z,22.90
2022-10-30T10:47:35.231Z,22.40
2022-10-30T10:50:18.094Z,22.00
2022-10-30T10:52:54.690Z,22.30
2022-10-30T10:55:30.556Z,22.10
2022-10-30T10:58:00.067Z,21.50
2022-10-30T11:00:29.197Z,21.60
2022-10-30T11:02:59.296Z,21.30
2022-10-30T11:05:28.316Z,20.80
2022-10-30T11:08:07.218Z,21.30
2022-10-30T11:10:34.279Z,20.80
2022-10-30T11:13:03.486Z,20.80
2022-10-30T11:15:36.214Z,20.70
2022-10-30T11:20:41.485Z,20.90
2022-10-30T11:23:30.174Z,21.10
2022-10-30T11:25:59.584Z,20.90
2022-10-30T11:28:36.791Z,20.80
2022-10-30T11:31:22.499Z,20.90
2022-10-30T11:33:49.483Z,21.10
2022-10-30T11:36:16.767Z,21.20
2022-10-30T11:38:43.693Z,21.30
2022-10-30T11:41:10.830Z,21.10
2022-10-30T11:43:38.106Z,20.80
2022-10-30T11:46:09.407Z,21.10
2022-10-30T11:48:42.302Z,21.10
2022-10-30T11:51:09.213Z,20.70
2022-10-30T11:53:38.836Z,20.70
2022-10-30T11:56:13.190Z,20.60
2022-10-30T11:58:42.518Z,20.60
2022-10-30T12:01:14.078Z,20.90
2022-10-30T12:03:43.208Z,21.00
2022-10-30T12:06:12.199Z,20.60
2022-10-30T12:08:43.610Z,20.90
2022-10-30T12:11:12.203Z,20.80
2022-10-30T12:13:40.103Z,20.50
2022-10-30T12:16:14.062Z,20.60
2022-10-30T12:18:41.149Z,20.60
2022-10-30T12:21:09.152Z,20.80
2022-10-30T12:23:36.083Z,21.20
2022-10-30T12:26:09.063Z,21.00
2022-10-30T12:28:40.621Z,20.90
2022-10-30T12:31:13.320Z,20.90
2022-10-30T12:33:50.285Z,20.90
2022-10-30T12:36:18.263Z,20.30
2022-10-30T12:38:52.981Z,20.40
2022-10-30T12:41:24.944Z,20.70
2022-10-30T12:43:58.319Z,20.20
2022-10-30T12:46:25.171Z,20.30
2022-10-30T12:48:53.488Z,20.70
2022-10-30T12:51:24.071Z,20.80
2022-10-30T12:54:00.621Z,20.50
2022-10-30T12:56:30.555Z,20.50
2022-10-30T12:59:03.332Z,20.70
2022-10-30T13:01:43.865Z,20.90
2022-10-30T13:04:19.151Z,20.60
2022-10-30T13:06:49.140Z,21.10
2022-10-30T13:09:22.891Z,20.60
2022-10-30T13:11:58.372Z,20.80
2022-10-30T13:14:48.279Z,20.70
2022-10-30T13:17:15.410Z,20.60
2022-10-30T13:19:47.493Z,20.70
2022-10-30T13:22:34.997Z,20.90
2022-10-30T13:25:07.648Z,21.10
2022-10-30T13:27:41.283Z,21.10
2022-10-30T13:30:18.208Z,21.30
2022-10-30T13:32:45.124Z,21.80
2022-10-30T13:35:30.659Z,21.60
2022-10-30T13:38:00.768Z,21.70
2022-10-30T13:40:33.252Z,21.70
2022-10-30T13:43:18.496Z,21.70
2022-10-30T13:45:51.933Z,21.80
2022-10-30T13:48:28.381Z,22.00
2022-10-30T13:51:04.142Z,22.00
2022-10-30T13:53:31.034Z,22.20
2022-10-30T13:55:58.184Z,22.40
2022-10-30T13:58:43.439Z,22.50
2022-10-30T14:01:30.694Z,22.60
2022-10-30T14:04:10.530Z,22.70
2022-10-30T14:06:57.619Z,22.70
2022-10-30T14:09:26.286Z,22.80
2022-10-30T14:11:54.367Z,23.00
2022-10-30T14:14:24.681Z,23.00
2022-10-30T14:17:04.611Z,23.10
2022-10-30T14:19:31.686Z,23.30
2022-10-30T14:21:58.873Z,23.60
2022-10-30T14:26:55.120Z,23.40
2022-10-30T14:29:37.674Z,23.50
2022-10-30T14:32:13.942Z,23.70
2022-10-30T14:34:55.938Z,24.30
2022-10-30T14:37:22.966Z,25.00
2022-10-30T14:39:50.548Z,25.90
2022-10-30T14:42:26.865Z,26.60
2022-10-30T14:45:18.953Z,27.30
2022-10-30T14:48:03.982Z,27.50
2022-10-30T14:50:32.633Z,27.90
2022-10-30T14:53:17.981Z,28.00
2022-10-30T14:56:12.200Z,28.40
2022-10-30T14:58:39.403Z,29.70
2022-10-30T15:01:09.392Z,30.00
2022-10-30T15:04:06.056Z,30.80
2022-10-30T15:06:52.972Z,31.70
2022-10-30T15:09:35.091Z,32.10
2022-10-30T15:12:10.968Z,32.60
2022-10-30T15:14:57.432Z,33.20
2022-10-30T15:17:29.926Z,34.00
2022-10-30T15:19:56.788Z,34.30
2022-10-30T15:22:23.800Z,34.50
2022-10-30T15:24:51.335Z,34.60
2022-10-30T15:27:19.285Z,34.20
2022-10-30T15:30:12.332Z,35.80
2022-10-30T15:32:40.782Z,36.20
2022-10-30T15:35:15.134Z,36.20
2022-10-30T15:37:56.174Z,36.40
2022-10-30T15:40:23.086Z,37.60
2022-10-30T15:42:50.006Z,37.80
2022-10-30T15:45:24.146Z,37.80
2022-10-30T15:48:11.640Z,37.70
2022-10-30T15:50:40.013Z,38.00
2022-10-30T15:53:07.146Z,38.10
2022-10-30T15:55:34.145Z,38.50
2022-10-30T15:58:04.364Z,39.30
2022-10-30T16:00:32.793Z,39.60
2022-10-30T16:03:20.102Z,39.90
2022-10-30T16:05:47.357Z,40.30
2022-10-30T16:08:22.154Z,40.70
2022-10-30T16:10:49.302Z,40.90
2022-10-30T16:13:19.870Z,41.20
2022-10-30T16:15:47.681Z,40.80
2022-10-30T16:18:29.252Z,40.80
2022-10-30T16:20:57.103Z,41.00
2022-10-30T16:23:24.854Z,41.10
2022-10-30T16:25:58.724Z,41.30
2022-10-30T16:28:34.277Z,41.20
2022-10-30T16:31:05.246Z,41.80
2022-10-30T16:33:33.735Z,41.90
2022-10-30T16:36:03.754Z,42.20
2022-10-30T16:38:37.116Z,41.70
2022-10-30T16:41:06.675Z,41.70
2022-10-30T16:44:05.559Z,42.10
2022-10-30T16:46:48.477Z,42.00
2022-10-30T16:49:17.271Z,42.60
2022-10-30T16:51:44.178Z,43.10
2022-10-30T16:54:31.265Z,43.30
2022-10-30T16:57:17.936Z,43.70
2022-10-30T16:59:55.507Z,43.90
2022-10-30T17:02:23.167Z,44.20
2022-10-30T17:04:53.846Z,44.40
2022-10-30T17:07:27.809Z,44.50
2022-10-30T17:09:57.094Z,44.50
2022-10-30T17:12:24.839Z,44.70
2022-10-30T17:15:36.956Z,45.30
2022-10-30T17:18:12.690Z,45.40
2022-10-30T17:20:39.625Z,45.90
2022-10-30T17:23:13.625Z,46.00
2022-10-30T17:25:45.245Z,46.40
2022-10-30T17:28:32.528Z,46.80
2022-10-30T17:31:21.336Z,47.10
2022-10-30T17:34:05.536Z,47.30
2022-10-30T17:36:35.402Z,47.30
2022-10-30T17:39:02.582Z,47.30
2022-10-30T17:41:29.755Z,47.60
2022-10-30T17:43:56.683Z,47.90
2022-10-30T17:46:24.059Z,48.10
2022-10-30T17:48:50.962Z,48.20
2022-10-30T17:51:18.012Z,48.40
2022-10-30T17:53:44.899Z,48.70
2022-10-30T17:56:20.419Z,48.80
2022-10-30T17:58:47.417Z,49.00
2022-10-30T18:01:16.984Z,49.20
2022-10-30T18:03:44.554Z,49.20
2022-10-30T18:06:15.880Z,49.30
2022-10-30T18:08:46.341Z,49.50
2022-10-30T18:11:17.126Z,49.80
2022-10-30T18:13:46.846Z,49.90
2022-10-30T18:16:16.038Z,50.00
2022-10-30T18:18:43.075Z,50.30
2022-10-30T18:21:19.188Z,50.40
2022-10-30T18:23:53.082Z,50.60
2022-10-30T18:26:28.997Z,50.80
2022-10-30T18:28:59.024Z,51.00
2022-10-30T18:31:25.947Z,51.00
2022-10-30T18:33:54.461Z,51.00
2022-10-30T18:36:22.104Z,51.10
2022-10-30T18:38:49.472Z,51.40
2022-10-30T18:41:17.784Z,51.60
2022-10-30T18:43:46.921Z,51.70
2022-10-30T18:46:14.721Z,51.80
2022-10-30T18:48:41.897Z,51.90
2022-10-30T18:51:21.111Z,51.90
2022-10-30T18:53:52.420Z,51.90
2022-10-30T18:56:23.574Z,52.10
2022-10-30T18:58:54.698Z,52.30
2022-10-30T19:01:26.308Z,52.30
2022-10-30T19:03:53.327Z,52.20
2022-10-30T19:06:21.822Z,52.20
2022-10-30T19:08:48.896Z,52.40
2022-10-30T19:11:20.144Z,52.60
2022-10-30T19:14:05.851Z,52.80
2022-10-30T19:16:35.856Z,53.10
2022-10-30T19:19:03.567Z,53.10
2022-10-30T19:21:33.645Z,53.20
2022-10-30T19:24:08.050Z,53.20
2022-10-30T19:29:15.745Z,53.50
2022-10-30T19:31:43.090Z,53.60
2022-10-30T19:34:21.671Z,53.70
2022-10-30T19:36:48.706Z,53.80
2022-10-30T19:39:18.655Z,53.90
2022-10-30T19:41:45.782Z,54.00
2022-10-30T19:44:12.994Z,54.00
2022-10-30T19:46:40.059Z,54.20
2022-10-30T19:49:15.910Z,54.20
2022-10-30T19:51:43.429Z,54.30
2022-10-30T19:57:04.509Z,54.80
2022-10-30T19:59:34.634Z,54.90
2022-10-30T20:02:01.743Z,54.90
2022-10-30T20:04:29.269Z,55.10
2022-10-30T20:07:02.126Z,55.20
2022-10-30T20:09:30.813Z,55.30
2022-10-30T20:11:59.066Z,55.30
2022-10-30T20:14:26.181Z,55.40
2022-10-30T20:16:53.399Z,55.80
2022-10-30T20:19:30.078Z,56.00
2022-10-30T20:21:57.152Z,55.80
2022-10-30T20:24:24.616Z,55.70
2022-10-30T20:26:51.754Z,55.60
2022-10-30T20:29:18.800Z,55.60
2022-10-30T20:31:46.977Z,56.10
2022-10-30T20:34:17.466Z,55.60
2022-10-30T20:36:44.522Z,55.70
2022-10-30T20:39:12.086Z,55.90
2022-10-30T20:41:39.164Z,56.00
2022-10-30T20:44:10.143Z,56.00
2022-10-30T20:46:37.332Z,56.10
2022-10-30T20:49:16.941Z,56.20
2022-10-30T20:51:45.225Z,56.10
2022-10-30T20:54:20.501Z,56.10
2022-10-30T20:56:47.875Z,56.10
2022-10-30T20:59:17.777Z,56.40
2022-10-30T21:01:45.015Z,56.50
2022-10-30T21:04:12.192Z,57.10
2022-10-30T21:06:39.720Z,57.50
2022-10-30T21:09:06.917Z,57.80
2022-10-30T21:11:34.174Z,57.80
2022-10-30T21:14:01.434Z,57.80
2022-10-30T21:16:28.941Z,57.60
2022-10-30T21:18:57.221Z,57.30
2022-10-30T21:21:25.825Z,57.40
2022-10-30T21:23:56.437Z,57.40
2022-10-30T21:26:25.045Z,57.30
2022-10-30T21:28:52.495Z,57.30
2022-10-30T21:31:22.936Z,57.40
2022-10-30T21:33:50.198Z,57.60
2022-10-30T21:36:22.864Z,57.70
2022-10-30T21:38:50.615Z,57.70
2022-10-30T21:41:20.542Z,57.60
2022-10-30T21:43:57.620Z,57.70
2022-10-30T21:46:25.476Z,57.80
2022-10-30T21:48:52.952Z,57.90
2022-10-30T21:51:23.952Z,57.90
2022-10-30T21:54:03.091Z,57.80
2022-10-30T21:56:31.488Z,57.70
2022-10-30T21:59:00.582Z,57.60
2022-10-30T22:01:28.850Z,57.80
2022-10-30T22:03:58.675Z,58.00
2022-10-30T22:06:29.010Z,58.10
2022-10-30T22:08:56.976Z,58.10
2022-10-30T22:11:24.432Z,58.10
2022-10-30T22:13:55.593Z,58.70
2022-10-30T22:16:26.117Z,58.30
2022-10-30T22:18:54.474Z,58.30
2022-10-30T22:21:22.040Z,58.40
2022-10-30T22:23:49.398Z,58.60
2022-10-30T22:26:18.986Z,58.70
2022-10-30T22:28:49.099Z,58.70
2022-10-30T22:31:17.246Z,58.80
2022-10-30T22:33:44.941Z,58.90
2022-10-30T22:36:15.468Z,59.00
2022-10-30T22:38:42.762Z,59.00
2022-10-30T22:41:20.263Z,59.10
2022-10-30T22:43:47.890Z,59.10
2022-10-30T22:46:18.453Z,59.20
2022-10-30T22:48:53.165Z,59.30
2022-10-30T22:51:20.628Z,59.30
2022-10-30T22:53:48.573Z,59.40
2022-10-30T22:56:19.912Z,59.30
2022-10-30T22:58:52.292Z,59.40
2022-10-30T23:01:22.382Z,59.40
2022-10-30T23:04:12.746Z,59.40
2022-10-30T23:06:49.367Z,59.30
2022-10-30T23:09:27.676Z,59.30
2022-10-30T23:11:58.101Z,59.30
2022-10-30T23:14:30.575Z,59.10
2022-10-30T23:17:23.025Z,59.10
2022-10-30T23:20:11.297Z,59.20
2022-10-30T23:22:47.354Z,59.40
2022-10-30T23:28:04.214Z,59.70
2022-10-30T23:30:39.819Z,59.70
2022-10-30T23:33:09.952Z,59.80
2022-10-30T23:35:39.702Z,59.80
2022-10-30T23:38:07.068Z,59.70
2022-10-30T23:40:35.585Z,59.70
2022-10-30T23:43:08.793Z,59.60
2022-10-30T23:45:53.674Z,59.60
2022-10-30T23:48:23.788Z,59.60
2022-10-30T23:50:51.034Z,59.60
2022-10-30T23:53:24.229Z,59.60
2022-10-30T23:55:55.468Z,59.60
2022-10-30T23:58:23.116Z,59.70
